Aviation Digital Data Service (ADDS)

Output produced by METARs form (0332 UTC 28 June 2017)
found at http://www.aviationweather.gov/adds/metars/
 
METAR text: KILE 280256Z AUTO 16006KT 10SM CLR 25/22 A2996 RMK AO2 SLPNO P0001 60002 T02500217 51006
Conditions at: KILE (KILLEEN MUNI , TX, US) observed 0256 UTC 28 June 2017
Temperature: 25.0°C (77°F)
Dewpoint: 21.7°C (71°F) [RH = 82%]
Pressure (altimeter): 29.96 inches Hg (1014.6 mb)
Winds: from the SSE (160 degrees) at 7 MPH (6 knots; 3.1 m/s)
Visibility: 10 or more miles (16+ km)
Ceiling: at least 12,000 feet AGL
Clouds: sky clear below 12,000 feet AGL
Weather: automated observation with no human augmentation;
there may or may not be significant weather present at this time